sensor_id;sensor_type;location;lat;lon;timestamp;pressure;altitude;pressure_sealevel;temperature;humidity
39949;BME280;29070;48.102;-1.652;2022-11-15T00:02:43;100434.81;;;10.70;79.05
39949;BME280;29070;48.102;-1.652;2022-11-15T00:07:43;100425.09;;;10.70;79.18
39949;BME280;29070;48.102;-1.652;2022-11-15T00:12:43;100413.81;;;10.70;79.17
39949;BME280;29070;48.102;-1.652;2022-11-15T00:17:44;100398.47;;;10.73;79.35
39949;BME280;29070;48.102;-1.652;2022-11-15T00:22:44;100382.28;;;10.76;79.57
39949;BME280;29070;48.102;-1.652;2022-11-15T00:27:45;100360.88;;;10.79;79.39
39949;BME280;29070;48.102;-1.652;2022-11-15T00:32:45;100355.03;;;10.84;79.43
39949;BME280;29070;48.102;-1.652;2022-11-15T00:37:46;100341.25;;;10.88;79.45
39949;BME280;29070;48.102;-1.652;2022-11-15T00:42:47;100323.28;;;10.92;79.52
39949;BME280;29070;48.102;-1.652;2022-11-15T00:47:47;100317.22;;;10.98;79.51
39949;BME280;29070;48.102;-1.652;2022-11-15T00:52:48;100303.66;;;11.01;79.50
39949;BME280;29070;48.102;-1.652;2022-11-15T00:57:48;100300.19;;;11.07;79.57
39949;BME280;29070;48.102;-1.652;2022-11-15T01:02:48;100287.47;;;11.11;79.67
39949;BME280;29070;48.102;-1.652;2022-11-15T01:07:53;100270.84;;;11.17;79.58
39949;BME280;29070;48.102;-1.652;2022-11-15T01:12:53;100266.16;;;11.26;79.62
39949;BME280;29070;48.102;-1.652;2022-11-15T01:17:53;100250.56;;;11.31;79.65
39949;BME280;29070;48.102;-1.652;2022-11-15T01:22:54;100240.25;;;11.36;79.50
39949;BME280;29070;48.102;-1.652;2022-11-15T01:27:55;100233.91;;;11.44;79.40
39949;BME280;29070;48.102;-1.652;2022-11-15T01:32:55;100226.41;;;11.48;79.51
39949;BME280;29070;48.102;-1.652;2022-11-15T01:37:55;100217.06;;;11.52;79.32
39949;BME280;29070;48.102;-1.652;2022-11-15T01:42:56;100199.88;;;11.56;79.34
39949;BME280;29070;48.102;-1.652;2022-11-15T01:47:56;100199.22;;;11.60;79.16
39949;BME280;29070;48.102;-1.652;2022-11-15T01:52:57;100184.84;;;11.63;79.18
39949;BME280;29070;48.102;-1.652;2022-11-15T01:58:00;100166.63;;;11.68;79.17
39949;BME280;29070;48.102;-1.652;2022-11-15T02:03:02;100171.81;;;11.75;79.00
39949;BME280;29070;48.102;-1.652;2022-11-15T02:08:02;100161.44;;;11.80;78.96
39949;BME280;29070;48.102;-1.652;2022-11-15T02:13:03;100155.34;;;11.86;79.01
39949;BME280;29070;48.102;-1.652;2022-11-15T02:18:11;100127.59;;;11.90;78.92
39949;BME280;29070;48.102;-1.652;2022-11-15T02:29:03;100124.69;;;11.98;78.74
39949;BME280;29070;48.102;-1.652;2022-11-15T02:39:23;100079.75;;;12.00;78.56
39949;BME280;29070;48.102;-1.652;2022-11-15T02:44:35;100080.09;;;12.04;78.61
39949;BME280;29070;48.102;-1.652;2022-11-15T02:49:37;100068.00;;;12.02;78.50
39949;BME280;29070;48.102;-1.652;2022-11-15T02:54:38;100073.81;;;12.05;78.65
39949;BME280;29070;48.102;-1.652;2022-11-15T03:09:56;100038.00;;;12.04;78.47
39949;BME280;29070;48.102;-1.652;2022-11-15T03:15:04;100032.31;;;12.07;78.42
39949;BME280;29070;48.102;-1.652;2022-11-15T03:20:08;100030.28;;;12.09;78.69
39949;BME280;29070;48.102;-1.652;2022-11-15T03:25:13;100026.28;;;12.06;78.39
39949;BME280;29070;48.102;-1.652;2022-11-15T03:30:17;100017.34;;;12.07;78.49
39949;BME280;29070;48.102;-1.652;2022-11-15T03:35:22;100011.28;;;12.07;78.51
39949;BME280;29070;48.102;-1.652;2022-11-15T03:40:39;100004.44;;;12.06;78.44
39949;BME280;29070;48.102;-1.652;2022-11-15T03:45:59;99989.22;;;12.08;78.54
39949;BME280;29070;48.102;-1.652;2022-11-15T03:51:01;99985.34;;;12.10;78.52
39949;BME280;29070;48.102;-1.652;2022-11-15T03:56:02;99975.38;;;12.12;78.49
39949;BME280;29070;48.102;-1.652;2022-11-15T04:01:03;99961.44;;;12.12;78.74
39949;BME280;29070;48.102;-1.652;2022-11-15T04:06:04;99946.91;;;12.09;78.56
39949;BME280;29070;48.102;-1.652;2022-11-15T04:11:04;99937.75;;;12.12;78.54
39949;BME280;29070;48.102;-1.652;2022-11-15T04:16:04;99926.44;;;12.11;78.72
39949;BME280;29070;48.102;-1.652;2022-11-15T04:21:05;99916.38;;;12.08;78.78
39949;BME280;29070;48.102;-1.652;2022-11-15T04:26:24;99903.78;;;12.10;78.86
39949;BME280;29070;48.102;-1.652;2022-11-15T04:31:24;99905.41;;;12.11;78.88
39949;BME280;29070;48.102;-1.652;2022-11-15T04:36:25;99904.34;;;12.12;78.90
39949;BME280;29070;48.102;-1.652;2022-11-15T04:41:44;99902.34;;;12.14;79.04
39949;BME280;29070;48.102;-1.652;2022-11-15T04:46:44;99888.34;;;12.14;79.34
39949;BME280;29070;48.102;-1.652;2022-11-15T04:51:44;99872.66;;;12.07;79.53
39949;BME280;29070;48.102;-1.652;2022-11-15T04:56:45;99865.59;;;12.08;79.49
39949;BME280;29070;48.102;-1.652;2022-11-15T05:01:45;99858.94;;;12.05;79.50
39949;BME280;29070;48.102;-1.652;2022-11-15T05:06:49;99847.84;;;12.03;79.68
39949;BME280;29070;48.102;-1.652;2022-11-15T05:11:50;99836.75;;;12.01;79.95
39949;BME280;29070;48.102;-1.652;2022-11-15T05:16:50;99827.84;;;12.02;80.00
39949;BME280;29070;48.102;-1.652;2022-11-15T05:21:51;99818.22;;;11.96;80.35
39949;BME280;29070;48.102;-1.652;2022-11-15T05:26:51;99812.97;;;11.96;80.54
39949;BME280;29070;48.102;-1.652;2022-11-15T05:31:51;99795.34;;;11.96;80.58
39949;BME280;29070;48.102;-1.652;2022-11-15T05:36:52;99792.97;;;11.95;80.51
39949;BME280;29070;48.102;-1.652;2022-11-15T05:41:57;99778.19;;;11.94;80.83
39949;BME280;29070;48.102;-1.652;2022-11-15T05:47:00;99764.47;;;11.92;81.12
39949;BME280;29070;48.102;-1.652;2022-11-15T05:52:03;99768.47;;;11.94;81.24
39949;BME280;29070;48.102;-1.652;2022-11-15T05:57:05;99759.22;;;11.92;81.44
39949;BME280;29070;48.102;-1.652;2022-11-15T06:02:06;99762.44;;;11.94;81.49
39949;BME280;29070;48.102;-1.652;2022-11-15T06:07:06;99751.47;;;11.97;81.71
39949;BME280;29070;48.102;-1.652;2022-11-15T06:12:07;99746.19;;;11.97;81.87
39949;BME280;29070;48.102;-1.652;2022-11-15T06:17:07;99755.91;;;11.96;82.10
39949;BME280;29070;48.102;-1.652;2022-11-15T06:22:07;99733.63;;;11.99;82.06
39949;BME280;29070;48.102;-1.652;2022-11-15T06:27:10;99730.19;;;11.98;81.97
39949;BME280;29070;48.102;-1.652;2022-11-15T06:32:11;99729.94;;;12.00;82.33
39949;BME280;29070;48.102;-1.652;2022-11-15T06:37:11;99727.31;;;12.00;82.38
39949;BME280;29070;48.102;-1.652;2022-11-15T06:42:11;99708.69;;;12.01;82.79
39949;BME280;29070;48.102;-1.652;2022-11-15T06:47:12;99690.59;;;12.05;82.66
39949;BME280;29070;48.102;-1.652;2022-11-15T06:52:12;99687.53;;;12.08;83.09
39949;BME280;29070;48.102;-1.652;2022-11-15T06:57:12;99677.56;;;12.10;83.13
39949;BME280;29070;48.102;-1.652;2022-11-15T07:02:13;99675.50;;;12.12;83.30
39949;BME280;29070;48.102;-1.652;2022-11-15T07:07:14;99670.59;;;12.16;83.50
39949;BME280;29070;48.102;-1.652;2022-11-15T07:12:14;99663.84;;;12.20;83.71
39949;BME280;29070;48.102;-1.652;2022-11-15T07:17:14;99671.25;;;12.23;83.87
39949;BME280;29070;48.102;-1.652;2022-11-15T07:22:15;99661.91;;;12.27;83.84
39949;BME280;29070;48.102;-1.652;2022-11-15T07:27:15;99671.47;;;12.33;84.08
39949;BME280;29070;48.102;-1.652;2022-11-15T07:32:15;99659.44;;;12.37;84.13
39949;BME280;29070;48.102;-1.652;2022-11-15T07:37:16;99650.31;;;12.40;84.26
39949;BME280;29070;48.102;-1.652;2022-11-15T07:42:17;99646.16;;;12.44;84.32
39949;BME280;29070;48.102;-1.652;2022-11-15T07:47:35;99646.94;;;12.45;84.47
39949;BME280;29070;48.102;-1.652;2022-11-15T07:52:36;99647.28;;;12.48;84.61
39949;BME280;29070;48.102;-1.652;2022-11-15T07:57:37;99648.44;;;12.52;84.62
39949;BME280;29070;48.102;-1.652;2022-11-15T08:02:37;99655.28;;;12.53;84.61
39949;BME280;29070;48.102;-1.652;2022-11-15T08:07:37;99662.16;;;12.54;84.98
39949;BME280;29070;48.102;-1.652;2022-11-15T08:12:38;99682.44;;;12.54;85.16
39949;BME280;29070;48.102;-1.652;2022-11-15T08:17:38;99681.94;;;12.57;85.16
39949;BME280;29070;48.102;-1.652;2022-11-15T08:22:38;99643.00;;;12.59;85.22
39949;BME280;29070;48.102;-1.652;2022-11-15T08:27:39;99657.56;;;12.62;85.31
39949;BME280;29070;48.102;-1.652;2022-11-15T08:32:39;99662.81;;;12.62;85.35
39949;BME280;29070;48.102;-1.652;2022-11-15T08:37:40;99675.03;;;12.68;85.43
39949;BME280;29070;48.102;-1.652;2022-11-15T08:42:40;99647.22;;;12.72;85.51
39949;BME280;29070;48.102;-1.652;2022-11-15T08:47:40;99646.28;;;12.78;85.93
39949;BME280;29070;48.102;-1.652;2022-11-15T08:52:41;99638.69;;;12.82;86.21
39949;BME280;29070;48.102;-1.652;2022-11-15T08:57:41;99629.06;;;12.87;86.30
39949;BME280;29070;48.102;-1.652;2022-11-15T09:02:41;99628.59;;;12.90;86.26
39949;BME280;29070;48.102;-1.652;2022-11-15T09:07:42;99619.50;;;12.98;86.19
39949;BME280;29070;48.102;-1.652;2022-11-15T09:12:42;99616.16;;;13.03;86.16
39949;BME280;29070;48.102;-1.652;2022-11-15T09:17:43;99613.59;;;13.08;86.21
39949;BME280;29070;48.102;-1.652;2022-11-15T09:22:43;99605.19;;;13.11;86.32
39949;BME280;29070;48.102;-1.652;2022-11-15T09:27:43;99608.97;;;13.15;86.23
39949;BME280;29070;48.102;-1.652;2022-11-15T09:32:44;99604.34;;;13.22;86.29
39949;BME280;29070;48.102;-1.652;2022-11-15T09:37:44;99605.56;;;13.31;86.35
39949;BME280;29070;48.102;-1.652;2022-11-15T09:43:17;99593.19;;;13.32;86.33
39949;BME280;29070;48.102;-1.652;2022-11-15T09:48:46;99592.72;;;13.35;86.36
39949;BME280;29070;48.102;-1.652;2022-11-15T09:54:12;99592.94;;;13.33;86.34
39949;BME280;29070;48.102;-1.652;2022-11-15T09:59:37;99585.84;;;13.34;86.35
39949;BME280;29070;48.102;-1.652;2022-11-15T10:04:40;99585.69;;;13.41;86.33
39949;BME280;29070;48.102;-1.652;2022-11-15T10:09:47;99592.00;;;13.40;86.27
39949;BME280;29070;48.102;-1.652;2022-11-15T10:14:50;99590.22;;;13.45;86.42
39949;BME280;29070;48.102;-1.652;2022-11-15T10:25:24;99606.53;;;13.42;86.60
39949;BME280;29070;48.102;-1.652;2022-11-15T10:30:34;99601.66;;;13.51;86.75
39949;BME280;29070;48.102;-1.652;2022-11-15T10:35:35;99603.38;;;13.62;87.17
39949;BME280;29070;48.102;-1.652;2022-11-15T10:40:36;99587.72;;;13.72;87.15
39949;BME280;29070;48.102;-1.652;2022-11-15T10:45:37;99588.31;;;13.80;87.07
39949;BME280;29070;48.102;-1.652;2022-11-15T10:50:43;99575.81;;;13.92;87.08
39949;BME280;29070;48.102;-1.652;2022-11-15T10:55:47;99574.72;;;14.10;87.23
39949;BME280;29070;48.102;-1.652;2022-11-15T11:00:48;99560.88;;;14.25;87.26
39949;BME280;29070;48.102;-1.652;2022-11-15T11:06:03;99546.19;;;14.29;87.25
39949;BME280;29070;48.102;-1.652;2022-11-15T11:11:04;99537.84;;;14.42;87.18
39949;BME280;29070;48.102;-1.652;2022-11-15T11:21:15;99526.88;;;14.56;86.82
39949;BME280;29070;48.102;-1.652;2022-11-15T11:31:39;99492.28;;;14.84;86.90
39949;BME280;29070;48.102;-1.652;2022-11-15T11:37:39;99488.22;;;15.09;86.99
39949;BME280;29070;48.102;-1.652;2022-11-15T11:42:17;99491.59;;;15.42;86.85
39949;BME280;29070;48.102;-1.652;2022-11-15T11:47:51;99480.28;;;15.62;86.54
39949;BME280;29070;48.102;-1.652;2022-11-15T11:53:12;99469.53;;;15.79;85.91
39949;BME280;29070;48.102;-1.652;2022-11-15T12:08:52;99465.25;;;15.73;83.71
39949;BME280;29070;48.102;-1.652;2022-11-15T12:13:58;99458.63;;;15.65;83.80
39949;BME280;29070;48.102;-1.652;2022-11-15T12:19:03;99456.22;;;15.58;83.15
39949;BME280;29070;48.102;-1.652;2022-11-15T12:24:13;99457.75;;;15.44;82.93
39949;BME280;29070;48.102;-1.652;2022-11-15T12:29:25;99451.38;;;15.40;82.98
39949;BME280;29070;48.102;-1.652;2022-11-15T12:45:43;99431.69;;;15.10;80.79
39949;BME280;29070;48.102;-1.652;2022-11-15T13:06:38;99428.78;;;15.12;80.51
39949;BME280;29070;48.102;-1.652;2022-11-15T13:11:44;99416.09;;;15.14;80.26
39949;BME280;29070;48.102;-1.652;2022-11-15T13:16:44;99420.03;;;15.11;79.67
39949;BME280;29070;48.102;-1.652;2022-11-15T13:21:49;99409.19;;;15.07;78.84
39949;BME280;29070;48.102;-1.652;2022-11-15T13:27:15;99417.38;;;15.11;78.95
39949;BME280;29070;48.102;-1.652;2022-11-15T13:32:18;99397.91;;;15.22;79.15
39949;BME280;29070;48.102;-1.652;2022-11-15T13:42:22;99412.22;;;15.32;78.73
39949;BME280;29070;48.102;-1.652;2022-11-15T13:47:25;99401.84;;;15.20;78.63
39949;BME280;29070;48.102;-1.652;2022-11-15T13:52:30;99424.06;;;15.19;78.80
39949;BME280;29070;48.102;-1.652;2022-11-15T13:57:41;99424.81;;;15.14;78.98
39949;BME280;29070;48.102;-1.652;2022-11-15T14:02:42;99434.59;;;15.14;78.81
39949;BME280;29070;48.102;-1.652;2022-11-15T14:08:05;99427.75;;;15.18;78.00
39949;BME280;29070;48.102;-1.652;2022-11-15T14:13:30;99431.72;;;15.20;77.49
39949;BME280;29070;48.102;-1.652;2022-11-15T14:18:48;99443.31;;;15.14;76.38
39949;BME280;29070;48.102;-1.652;2022-11-15T14:23:49;99441.47;;;15.10;77.01
39949;BME280;29070;48.102;-1.652;2022-11-15T14:28:50;99423.94;;;14.98;76.05
39949;BME280;29070;48.102;-1.652;2022-11-15T14:33:51;99427.84;;;14.91;75.85
39949;BME280;29070;48.102;-1.652;2022-11-15T14:38:51;99435.25;;;14.89;76.08
39949;BME280;29070;48.102;-1.652;2022-11-15T14:43:52;99434.75;;;14.92;76.20
39949;BME280;29070;48.102;-1.652;2022-11-15T14:48:53;99443.69;;;14.85;75.60
39949;BME280;29070;48.102;-1.652;2022-11-15T14:53:53;99446.53;;;14.79;75.21
39949;BME280;29070;48.102;-1.652;2022-11-15T14:58:55;99462.56;;;14.67;74.73
39949;BME280;29070;48.102;-1.652;2022-11-15T15:03:55;99459.34;;;14.60;74.31
39949;BME280;29070;48.102;-1.652;2022-11-15T15:08:57;99466.41;;;14.54;74.01
39949;BME280;29070;48.102;-1.652;2022-11-15T15:13:57;99457.03;;;14.41;73.08
39949;BME280;29070;48.102;-1.652;2022-11-15T15:19:01;99459.66;;;14.36;73.10
39949;BME280;29070;48.102;-1.652;2022-11-15T15:24:01;99473.78;;;14.25;72.56
39949;BME280;29070;48.102;-1.652;2022-11-15T15:29:02;99483.16;;;14.10;72.72
39949;BME280;29070;48.102;-1.652;2022-11-15T15:34:02;99473.56;;;13.99;72.51
39949;BME280;29070;48.102;-1.652;2022-11-15T15:39:03;99477.13;;;13.88;72.71
39949;BME280;29070;48.102;-1.652;2022-11-15T15:44:03;99486.19;;;13.75;72.72
39949;BME280;29070;48.102;-1.652;2022-11-15T15:49:04;99473.47;;;13.67;72.84
39949;BME280;29070;48.102;-1.652;2022-11-15T15:54:04;99470.44;;;13.58;72.73
39949;BME280;29070;48.102;-1.652;2022-11-15T15:59:04;99468.75;;;13.47;72.84
39949;BME280;29070;48.102;-1.652;2022-11-15T16:04:05;99470.19;;;13.38;72.84
39949;BME280;29070;48.102;-1.652;2022-11-15T16:09:05;99476.44;;;13.31;72.87
39949;BME280;29070;48.102;-1.652;2022-11-15T16:14:06;99465.25;;;13.24;72.79
39949;BME280;29070;48.102;-1.652;2022-11-15T16:19:09;99472.06;;;13.20;72.79
39949;BME280;29070;48.102;-1.652;2022-11-15T16:24:10;99476.63;;;13.08;72.72
39949;BME280;29070;48.102;-1.652;2022-11-15T16:29:11;99480.94;;;12.97;72.79
39949;BME280;29070;48.102;-1.652;2022-11-15T16:34:11;99481.25;;;12.84;72.88
39949;BME280;29070;48.102;-1.652;2022-11-15T16:39:12;99490.38;;;12.76;72.90
39949;BME280;29070;48.102;-1.652;2022-11-15T16:44:18;99486.31;;;12.68;72.85
39949;BME280;29070;48.102;-1.652;2022-11-15T16:49:20;99487.47;;;12.61;72.93
39949;BME280;29070;48.102;-1.652;2022-11-15T16:54:20;99501.75;;;12.48;73.18
39949;BME280;29070;48.102;-1.652;2022-11-15T16:59:21;99507.00;;;12.31;73.52
39949;BME280;29070;48.102;-1.652;2022-11-15T17:04:21;99515.81;;;12.25;73.44
39949;BME280;29070;48.102;-1.652;2022-11-15T17:09:22;99510.94;;;12.16;73.30
39949;BME280;29070;48.102;-1.652;2022-11-15T17:14:23;99525.72;;;12.06;73.41
39949;BME280;29070;48.102;-1.652;2022-11-15T17:19:24;99528.72;;;11.97;73.61
39949;BME280;29070;48.102;-1.652;2022-11-15T17:24:24;99524.59;;;11.90;73.70
39949;BME280;29070;48.102;-1.652;2022-11-15T17:29:24;99534.44;;;11.82;73.93
39949;BME280;29070;48.102;-1.652;2022-11-15T17:34:25;99537.75;;;11.78;73.88
39949;BME280;29070;48.102;-1.652;2022-11-15T17:39:25;99548.41;;;11.71;73.84
39949;BME280;29070;48.102;-1.652;2022-11-15T17:44:26;99555.88;;;11.62;73.99
39949;BME280;29070;48.102;-1.652;2022-11-15T17:49:26;99555.75;;;11.57;73.80
39949;BME280;29070;48.102;-1.652;2022-11-15T17:54:26;99570.59;;;11.52;74.02
39949;BME280;29070;48.102;-1.652;2022-11-15T17:59:27;99578.03;;;11.43;74.04
39949;BME280;29070;48.102;-1.652;2022-11-15T18:04:27;99578.59;;;11.33;74.08
39949;BME280;29070;48.102;-1.652;2022-11-15T18:09:28;99575.84;;;11.28;74.08
39949;BME280;29070;48.102;-1.652;2022-11-15T18:14:28;99585.66;;;11.21;74.57
39949;BME280;29070;48.102;-1.652;2022-11-15T18:19:28;99583.50;;;11.18;74.65
39949;BME280;29070;48.102;-1.652;2022-11-15T18:24:35;99579.84;;;11.19;74.69
39949;BME280;29070;48.102;-1.652;2022-11-15T18:29:37;99593.75;;;11.19;74.68
39949;BME280;29070;48.102;-1.652;2022-11-15T18:34:38;99595.59;;;11.19;74.79
39949;BME280;29070;48.102;-1.652;2022-11-15T18:39:38;99601.28;;;11.16;74.74
39949;BME280;29070;48.102;-1.652;2022-11-15T18:44:39;99599.56;;;11.10;74.60
39949;BME280;29070;48.102;-1.652;2022-11-15T18:49:39;99600.94;;;11.00;74.61
39949;BME280;29070;48.102;-1.652;2022-11-15T18:54:39;99604.91;;;10.91;74.70
39949;BME280;29070;48.102;-1.652;2022-11-15T18:59:40;99598.34;;;10.82;74.76
39949;BME280;29070;48.102;-1.652;2022-11-15T19:04:40;99594.44;;;10.73;74.85
39949;BME280;29070;48.102;-1.652;2022-11-15T19:09:40;99596.38;;;10.65;74.87
39949;BME280;29070;48.102;-1.652;2022-11-15T19:14:41;99594.88;;;10.58;74.95
39949;BME280;29070;48.102;-1.652;2022-11-15T19:19:41;99592.31;;;10.51;74.77
39949;BME280;29070;48.102;-1.652;2022-11-15T19:24:41;99605.75;;;10.43;74.97
39949;BME280;29070;48.102;-1.652;2022-11-15T19:29:42;99605.47;;;10.33;75.02
39949;BME280;29070;48.102;-1.652;2022-11-15T19:34:42;99612.38;;;10.27;75.11
39949;BME280;29070;48.102;-1.652;2022-11-15T19:39:43;99608.69;;;10.16;75.07
39949;BME280;29070;48.102;-1.652;2022-11-15T19:44:43;99600.09;;;10.09;75.14
39949;BME280;29070;48.102;-1.652;2022-11-15T19:49:43;99609.03;;;10.01;75.25
39949;BME280;29070;48.102;-1.652;2022-11-15T19:54:45;99607.06;;;9.97;75.46
39949;BME280;29070;48.102;-1.652;2022-11-15T19:59:45;99588.56;;;9.91;75.57
39949;BME280;29070;48.102;-1.652;2022-11-15T20:04:46;99605.09;;;9.92;75.57
39949;BME280;29070;48.102;-1.652;2022-11-15T20:09:46;99603.94;;;9.88;75.78
39949;BME280;29070;48.102;-1.652;2022-11-15T20:14:46;99594.25;;;9.88;75.92
39949;BME280;29070;48.102;-1.652;2022-11-15T20:19:47;99606.78;;;9.86;76.18
39949;BME280;29070;48.102;-1.652;2022-11-15T20:24:47;99638.59;;;9.90;76.47
39949;BME280;29070;48.102;-1.652;2022-11-15T20:29:47;99630.50;;;9.91;76.63
39949;BME280;29070;48.102;-1.652;2022-11-15T20:34:49;99659.50;;;9.97;76.75
39949;BME280;29070;48.102;-1.652;2022-11-15T20:39:49;99655.41;;;10.01;77.04
39949;BME280;29070;48.102;-1.652;2022-11-15T20:44:49;99624.91;;;10.06;76.92
39949;BME280;29070;48.102;-1.652;2022-11-15T20:49:49;99621.84;;;10.09;77.25
39949;BME280;29070;48.102;-1.652;2022-11-15T20:54:50;99635.75;;;10.10;77.32
39949;BME280;29070;48.102;-1.652;2022-11-15T20:59:50;99645.22;;;10.11;77.48
39949;BME280;29070;48.102;-1.652;2022-11-15T21:04:51;99635.19;;;10.08;77.35
39949;BME280;29070;48.102;-1.652;2022-11-15T21:09:51;99635.75;;;10.10;77.50
39949;BME280;29070;48.102;-1.652;2022-11-15T21:15:10;99636.44;;;10.05;77.18
39949;BME280;29070;48.102;-1.652;2022-11-15T21:20:11;99637.84;;;9.83;78.16
39949;BME280;29070;48.102;-1.652;2022-11-15T21:25:11;99646.06;;;9.68;78.34
39949;BME280;29070;48.102;-1.652;2022-11-15T21:30:12;99637.63;;;9.66;77.90
39949;BME280;29070;48.102;-1.652;2022-11-15T21:35:12;99648.09;;;9.66;77.71
39949;BME280;29070;48.102;-1.652;2022-11-15T21:40:13;99658.41;;;9.61;77.71
39949;BME280;29070;48.102;-1.652;2022-11-15T21:45:13;99643.91;;;9.58;77.41
39949;BME280;29070;48.102;-1.652;2022-11-15T21:50:14;99639.34;;;9.53;77.79
39949;BME280;29070;48.102;-1.652;2022-11-15T21:55:14;99642.59;;;9.49;77.68
39949;BME280;29070;48.102;-1.652;2022-11-15T22:00:15;99642.22;;;9.45;77.67
39949;BME280;29070;48.102;-1.652;2022-11-15T22:05:34;99646.69;;;9.38;77.61
39949;BME280;29070;48.102;-1.652;2022-11-15T22:10:35;99642.09;;;9.33;77.67
39949;BME280;29070;48.102;-1.652;2022-11-15T22:15:35;99636.63;;;9.35;77.91
39949;BME280;29070;48.102;-1.652;2022-11-15T22:20:35;99635.47;;;9.31;77.93
39949;BME280;29070;48.102;-1.652;2022-11-15T22:25:36;99629.06;;;9.27;77.85
39949;BME280;29070;48.102;-1.652;2022-11-15T22:30:36;99627.88;;;9.23;77.79
39949;BME280;29070;48.102;-1.652;2022-11-15T22:35:37;99626.31;;;9.15;77.81
39949;BME280;29070;48.102;-1.652;2022-11-15T22:40:38;99624.19;;;9.05;77.79
39949;BME280;29070;48.102;-1.652;2022-11-15T22:45:46;99613.97;;;8.97;77.86
39949;BME280;29070;48.102;-1.652;2022-11-15T22:50:47;99596.50;;;8.91;77.94
39949;BME280;29070;48.102;-1.652;2022-11-15T22:55:54;99600.75;;;8.85;78.13
39949;BME280;29070;48.102;-1.652;2022-11-15T23:00:58;99593.94;;;8.77;78.49
39949;BME280;29070;48.102;-1.652;2022-11-15T23:06:04;99602.44;;;8.73;78.47
39949;BME280;29070;48.102;-1.652;2022-11-15T23:11:05;99596.22;;;8.67;78.38
39949;BME280;29070;48.102;-1.652;2022-11-15T23:16:23;99593.59;;;8.67;78.39
39949;BME280;29070;48.102;-1.652;2022-11-15T23:21:42;99593.84;;;8.66;79.00
39949;BME280;29070;48.102;-1.652;2022-11-15T23:27:05;99590.84;;;8.62;78.67
39949;BME280;29070;48.102;-1.652;2022-11-15T23:32:09;99594.44;;;8.61;78.98
39949;BME280;29070;48.102;-1.652;2022-11-15T23:37:28;99594.88;;;8.58;78.86
39949;BME280;29070;48.102;-1.652;2022-11-15T23:42:28;99598.50;;;8.57;79.19
39949;BME280;29070;48.102;-1.652;2022-11-15T23:47:29;99599.28;;;8.57;79.22
39949;BME280;29070;48.102;-1.652;2022-11-15T23:52:29;99598.88;;;8.61;79.31
39949;BME280;29070;48.102;-1.652;2022-11-15T23:57:29;99601.88;;;8.64;79.77
